Time;durP1;ratioP1;P1;durP2;ratioP2;P2;SDS_P1;SDS_P2;PMS_P1;PMS_P2;Temp;Humidity;BMP_temperature;BMP_pressure;BME280_temperature;BME280_humidity;BME280_pressure;Samples;Min_cycle;Max_cycle;Signal;HPM_P1;HPM_P2
2023/05/28 04:01:05;;;;;;;25.40;9.75;;;11.60;99.90;;;;;;5669976;23;20505;-73
2023/05/28 04:03:30;;;;;;;21.70;7.80;;;11.60;99.90;;;;;;4991394;28;20042;-73
2023/05/28 04:05:56;;;;;;;22.50;8.07;;;11.50;99.90;;;;;;4990519;28;20030;-74
2023/05/28 04:08:22;;;;;;;22.52;8.40;;;11.50;99.90;;;;;;4992538;28;20165;-73
2023/05/28 04:10:47;;;;;;;19.92;8.63;;;11.50;99.90;;;;;;4987452;28;20056;-74
2023/05/28 04:13:13;;;;;;;29.95;9.30;;;11.50;99.90;;;;;;4971901;28;20039;-74
2023/05/28 04:15:38;;;;;;;24.90;8.18;;;11.50;99.90;;;;;;4971894;28;20471;-75
2023/05/28 04:18:05;;;;;;;23.10;8.05;;;11.50;99.90;;;;;;4972824;28;20049;-74
2023/05/28 04:20:30;;;;;;;21.65;8.48;;;11.50;99.90;;;;;;4972711;28;20054;-74
2023/05/28 04:22:56;;;;;;;23.58;8.77;;;11.60;99.90;;;;;;4974417;28;20482;-73
2023/05/28 04:25:22;;;;;;;21.73;8.30;;;11.60;99.90;;;;;;4974900;28;20050;-73
2023/05/28 04:27:47;;;;;;;23.13;8.38;;;11.50;99.90;;;;;;4975962;28;20031;-74
2023/05/28 04:30:13;;;;;;;21.67;9.02;;;11.50;99.90;;;;;;4975924;28;20046;-75
2023/05/28 04:32:39;;;;;;;27.95;9.05;;;11.50;99.90;;;;;;4974586;28;20078;-75
2023/05/28 04:35:08;;;;;;;26.42;9.20;;;11.50;99.90;;;;;;4975854;28;20043;-73
2023/05/28 04:37:36;;;;;;;27.83;8.98;;;11.50;99.90;;;;;;4974791;28;20113;-73
2023/05/28 04:40:03;;;;;;;21.02;8.23;;;11.60;99.90;;;;;;4976155;28;20042;-74
2023/05/28 04:42:28;;;;;;;20.25;8.07;;;11.50;99.90;;;;;;4974450;28;20058;-74
2023/05/28 04:44:54;;;;;;;23.35;8.57;;;11.60;99.90;;;;;;4974290;28;20046;-73
2023/05/28 04:47:21;;;;;;;24.40;8.90;;;11.60;99.90;;;;;;4974427;28;20402;-73
2023/05/28 04:49:47;;;;;;;21.13;8.25;;;11.60;99.90;;;;;;4974609;28;20137;-73
2023/05/28 04:52:13;;;;;;;21.73;8.13;;;11.60;99.90;;;;;;4975628;28;20140;-74
2023/05/28 04:54:38;;;;;;;22.80;7.47;;;11.60;99.90;;;;;;4974372;28;20475;-75
2023/05/28 04:57:04;;;;;;;22.33;8.43;;;11.70;99.90;;;;;;4974440;28;20093;-73
2023/05/28 04:59:31;;;;;;;26.30;8.10;;;11.70;99.90;;;;;;4974436;28;20031;-73
2023/05/28 05:01:56;;;;;;;24.00;8.65;;;11.80;99.90;;;;;;4937582;28;1081996;-74
2023/05/28 05:04:22;;;;;;;21.13;7.95;;;11.80;99.90;;;;;;4975486;28;20078;-74
2023/05/28 05:06:48;;;;;;;23.60;8.27;;;11.90;99.90;;;;;;4975225;28;20486;-73
2023/05/28 05:09:13;;;;;;;28.15;9.23;;;11.90;99.90;;;;;;4976565;28;20079;-73
2023/05/28 05:11:39;;;;;;;23.42;7.95;;;12.00;99.90;;;;;;4977120;28;20039;-74
2023/05/28 05:14:05;;;;;;;21.75;7.45;;;12.00;99.90;;;;;;4975203;28;20490;-74
2023/05/28 05:16:31;;;;;;;20.90;7.20;;;12.10;99.90;;;;;;4975109;28;20070;-74
2023/05/28 05:18:57;;;;;;;21.80;7.75;;;12.10;99.90;;;;;;4976202;28;20035;-74
2023/05/28 05:21:22;;;;;;;18.77;7.10;;;12.20;99.90;;;;;;4976254;28;20046;-74
2023/05/28 05:23:48;;;;;;;18.02;7.28;;;12.20;99.90;;;;;;4974855;28;20101;-73
2023/05/28 05:26:16;;;;;;;25.70;9.45;;;12.20;99.90;;;;;;4974933;28;20499;-75
2023/05/28 05:28:43;;;;;;;16.40;6.90;;;12.30;99.90;;;;;;4974705;28;20053;-74
2023/05/28 05:31:11;;;;;;;21.20;8.27;;;12.30;99.90;;;;;;4975939;28;20205;-73
2023/05/28 05:33:37;;;;;;;22.02;7.88;;;12.30;99.90;;;;;;4974480;28;20071;-73
2023/05/28 05:36:03;;;;;;;21.83;8.40;;;12.40;99.90;;;;;;4958574;28;20086;-74
2023/05/28 05:38:32;;;;;;;27.83;7.65;;;12.40;99.90;;;;;;4974992;28;20038;-73
2023/05/28 05:40:58;;;;;;;20.80;7.80;;;12.40;99.90;;;;;;4974662;28;20047;-73
2023/05/28 05:43:23;;;;;;;23.17;6.93;;;12.40;99.90;;;;;;4974585;28;20046;-72
2023/05/28 05:45:49;;;;;;;17.75;7.10;;;12.50;99.90;;;;;;4974548;28;20050;-72
2023/05/28 05:48:15;;;;;;;19.38;7.57;;;12.50;99.90;;;;;;4974389;28;20074;-74
2023/05/28 05:51:00;;;;;;;22.00;8.30;;;12.50;99.90;;;;;;4958238;28;20046;-73
2023/05/28 05:53:26;;;;;;;14.02;6.78;;;12.50;99.90;;;;;;4976056;28;20038;-74
2023/05/28 05:55:52;;;;;;;21.67;7.72;;;12.50;99.90;;;;;;4974540;28;20034;-73
2023/05/28 05:58:21;;;;;;;21.77;7.90;;;12.60;99.90;;;;;;4975793;28;20043;-74
2023/05/28 06:00:50;;;;;;;19.92;7.85;;;12.60;99.90;;;;;;4975760;28;20101;-74
2023/05/28 06:03:16;;;;;;;18.73;6.88;;;12.60;99.90;;;;;;4974192;28;20046;-74
2023/05/28 06:05:41;;;;;;;17.88;6.65;;;12.60;99.90;;;;;;4974274;28;20042;-74
2023/05/28 06:08:07;;;;;;;20.95;7.13;;;12.60;99.90;;;;;;4975952;28;20038;-75
2023/05/28 06:10:33;;;;;;;17.65;7.30;;;12.60;99.90;;;;;;4975296;28;20034;-73
2023/05/28 06:13:01;;;;;;;18.65;6.72;;;12.70;99.90;;;;;;4974270;28;20117;-73
2023/05/28 06:15:28;;;;;;;22.90;7.03;;;12.70;99.90;;;;;;4974118;28;20089;-73
2023/05/28 06:17:55;;;;;;;17.90;6.55;;;12.80;99.90;;;;;;4974381;28;20473;-74
2023/05/28 06:20:21;;;;;;;18.73;7.20;;;12.80;99.90;;;;;;4973833;28;20066;-73
2023/05/28 06:22:47;;;;;;;14.75;6.60;;;12.90;99.90;;;;;;4975454;28;20035;-73
2023/05/28 06:25:12;;;;;;;17.20;6.10;;;12.90;99.90;;;;;;4975487;28;20056;-73
2023/05/28 06:27:38;;;;;;;16.25;6.82;;;13.00;99.90;;;;;;4973894;28;20038;-74
2023/05/28 06:30:04;;;;;;;15.77;6.35;;;13.00;99.90;;;;;;4975213;28;20034;-73
2023/05/28 06:32:31;;;;;;;16.05;5.53;;;13.00;99.90;;;;;;4975142;28;20054;-73
2023/05/28 06:34:57;;;;;;;30.95;6.60;;;13.10;99.90;;;;;;4975518;28;20045;-72
2023/05/28 06:37:22;;;;;;;16.70;6.88;;;13.10;99.90;;;;;;4973872;28;20101;-74
2023/05/28 06:39:48;;;;;;;18.40;6.50;;;13.20;99.90;;;;;;4975022;28;20510;-72
2023/05/28 06:42:14;;;;;;;20.55;6.45;;;13.10;99.90;;;;;;4973580;28;20057;-75
2023/05/28 06:44:39;;;;;;;18.23;6.43;;;13.20;99.90;;;;;;4974214;28;20122;-72
2023/05/28 06:47:05;;;;;;;12.57;6.35;;;13.30;99.90;;;;;;4975446;28;20042;-77
2023/05/28 06:49:31;;;;;;;18.90;6.28;;;13.30;99.90;;;;;;4958843;28;20038;-74
2023/05/28 06:51:57;;;;;;;16.65;6.38;;;13.30;99.90;;;;;;4957339;28;20509;-74
2023/05/28 06:54:23;;;;;;;14.98;5.75;;;13.40;99.90;;;;;;4973619;28;20074;-75
2023/05/28 06:56:48;;;;;;;15.68;6.20;;;13.50;99.90;;;;;;4973554;28;20046;-75
2023/05/28 06:59:14;;;;;;;19.40;6.78;;;13.60;99.90;;;;;;4973783;28;20047;-75
2023/05/28 07:01:40;;;;;;;16.70;5.45;;;13.60;99.90;;;;;;4965364;28;20471;-73
2023/05/28 07:04:05;;;;;;;16.40;6.05;;;13.60;99.90;;;;;;4974706;28;20050;-75
2023/05/28 07:06:32;;;;;;;12.65;5.63;;;13.70;99.90;;;;;;4958224;28;20049;-74
2023/05/28 07:08:58;;;;;;;16.65;5.82;;;13.70;99.90;;;;;;4973987;28;20042;-76
2023/05/28 07:11:23;;;;;;;14.43;5.75;;;13.80;99.90;;;;;;4973912;28;20057;-74
2023/05/28 07:13:49;;;;;;;15.75;6.00;;;13.90;99.90;;;;;;4973845;28;20054;-74
2023/05/28 07:16:15;;;;;;;13.35;5.88;;;13.90;99.90;;;;;;4973813;28;20043;-75
2023/05/28 07:18:40;;;;;;;12.82;5.30;;;14.00;99.90;;;;;;4975012;28;20043;-75
2023/05/28 07:21:06;;;;;;;16.88;6.05;;;14.10;99.90;;;;;;4973847;28;20054;-75
2023/05/28 07:23:32;;;;;;;18.00;6.20;;;14.20;99.90;;;;;;4975103;28;20114;-75
2023/05/28 07:25:58;;;;;;;17.45;5.88;;;14.30;99.90;;;;;;4973679;28;20082;-74
2023/05/28 07:28:23;;;;;;;13.73;6.68;;;14.40;99.90;;;;;;4973782;28;20049;-75
2023/05/28 07:30:49;;;;;;;13.48;6.45;;;14.50;99.90;;;;;;4957365;28;20054;-75
2023/05/28 07:33:15;;;;;;;12.73;5.95;;;14.60;99.90;;;;;;4973905;28;20038;-75
2023/05/28 07:35:41;;;;;;;18.90;6.40;;;14.70;99.90;;;;;;4973939;28;20034;-74
2023/05/28 07:38:10;;;;;;;16.30;7.15;;;14.70;99.90;;;;;;4973576;28;20155;-75
2023/05/28 07:40:36;;;;;;;17.77;6.18;;;14.80;99.90;;;;;;4973438;28;20050;-74
2023/05/28 07:43:02;;;;;;;14.02;6.60;;;14.90;99.90;;;;;;4975126;28;20031;-75
2023/05/28 07:45:27;;;;;;;15.95;6.25;;;15.00;99.90;;;;;;4975358;28;20355;-75
2023/05/28 07:47:53;;;;;;;12.43;5.97;;;15.10;99.90;;;;;;4975170;28;20191;-75
2023/05/28 07:50:19;;;;;;;15.23;5.80;;;15.10;99.90;;;;;;4973700;28;20047;-74
2023/05/28 07:52:45;;;;;;;17.67;5.90;;;15.20;99.90;;;;;;4973379;28;20343;-74
2023/05/28 07:55:11;;;;;;;13.63;6.10;;;15.30;99.90;;;;;;4975150;28;20045;-77
2023/05/28 07:57:37;;;;;;;12.27;6.00;;;15.40;99.90;;;;;;4977871;28;20031;-75
2023/05/28 08:00:09;;;;;;;15.40;6.03;;;15.50;99.90;;;;;;4979472;28;20034;-75
2023/05/28 08:02:35;;;;;;;16.65;6.15;;;15.70;99.90;;;;;;4969091;28;20130;-77
2023/05/28 08:05:01;;;;;;;13.73;6.00;;;15.70;99.90;;;;;;4958009;29;20122;-73
2023/05/28 08:07:28;;;;;;;15.88;5.93;;;15.80;99.90;;;;;;4960302;29;20039;-75
2023/05/28 08:09:54;;;;;;;12.40;6.43;;;15.90;99.90;;;;;;4958042;29;20058;-75
2023/05/28 08:12:19;;;;;;;12.43;6.10;;;15.90;99.90;;;;;;4957790;29;20043;-76
2023/05/28 08:14:45;;;;;;;12.70;5.75;;;16.10;99.90;;;;;;4959366;29;20091;-74
2023/05/28 08:17:11;;;;;;;14.55;6.43;;;16.20;99.90;;;;;;4957491;29;20515;-75
2023/05/28 08:19:36;;;;;;;12.73;5.72;;;16.30;99.90;;;;;;4957854;29;20419;-75
2023/05/28 08:22:02;;;;;;;15.43;6.00;;;16.40;99.90;;;;;;4958654;29;20046;-76
2023/05/28 08:24:28;;;;;;;16.38;6.10;;;16.50;99.90;;;;;;4941677;29;20051;-75
2023/05/28 08:26:54;;;;;;;16.33;6.35;;;16.50;99.90;;;;;;4957416;29;20058;-76
2023/05/28 08:29:19;;;;;;;16.27;6.43;;;16.60;99.90;;;;;;4957845;29;20050;-70
2023/05/28 08:31:46;;;;;;;15.13;5.43;;;16.70;99.90;;;;;;4958830;28;20050;-77
2023/05/28 08:34:12;;;;;;;16.40;6.45;;;16.80;99.90;;;;;;4971655;28;20475;-73
2023/05/28 08:36:38;;;;;;;12.07;5.95;;;16.90;99.90;;;;;;4976318;28;20053;-74
2023/05/28 08:39:04;;;;;;;15.82;5.95;;;17.10;99.90;;;;;;4975370;28;20043;-76
2023/05/28 08:41:30;;;;;;;17.55;6.55;;;17.20;99.90;;;;;;4974748;28;20593;-74
2023/05/28 08:43:56;;;;;;;14.85;6.30;;;17.20;99.90;;;;;;4975140;28;20039;-76
2023/05/28 08:46:22;;;;;;;13.05;5.80;;;17.30;99.90;;;;;;4977056;28;20071;-74
2023/05/28 08:48:49;;;;;;;16.55;5.65;;;17.40;99.90;;;;;;4977229;28;20074;-74
2023/05/28 08:51:17;;;;;;;12.65;5.65;;;17.50;99.90;;;;;;4975318;28;20059;-77
2023/05/28 08:53:49;;;;;;;11.50;5.40;;;17.50;99.90;;;;;;4976356;28;20372;-74
2023/05/28 08:56:15;;;;;;;10.20;5.10;;;17.60;99.90;;;;;;4977737;28;20038;-76
2023/05/28 08:58:40;;;;;;;14.27;5.80;;;17.70;99.90;;;;;;4976480;28;20395;-76
2023/05/28 09:01:06;;;;;;;12.65;5.93;;;17.90;99.90;;;;;;4977442;28;20047;-76
2023/05/28 09:03:33;;;;;;;15.68;5.70;;;18.00;99.90;;;;;;4976789;28;20050;-76
2023/05/28 09:05:58;;;;;;;13.25;5.80;;;18.10;99.90;;;;;;4977859;28;20035;-76
2023/05/28 09:08:24;;;;;;;10.77;5.32;;;18.30;99.90;;;;;;4975786;28;20046;-75
2023/05/28 09:10:50;;;;;;;11.88;4.95;;;18.40;99.90;;;;;;4977536;28;20043;-75
2023/05/28 09:13:20;;;;;;;9.48;5.00;;;18.40;99.90;;;;;;4976699;28;20039;-76
2023/05/28 09:15:56;;;;;;;10.65;5.18;;;18.60;99.90;;;;;;4976059;28;20046;-75
2023/05/28 09:18:22;;;;;;;11.15;5.10;;;18.60;99.90;;;;;;4977659;28;20126;-76
2023/05/28 09:20:49;;;;;;;8.60;5.05;;;18.70;99.90;;;;;;4975755;28;20082;-76
2023/05/28 09:23:17;;;;;;;10.43;4.80;;;18.80;99.90;;;;;;4975531;28;20486;-76
2023/05/28 09:25:44;;;;;;;11.00;5.32;;;18.90;99.90;;;;;;4975582;28;20105;-74
2023/05/28 09:28:13;;;;;;;12.10;5.32;;;18.90;99.90;;;;;;4975964;28;20047;-75
2023/05/28 09:30:39;;;;;;;15.07;5.20;;;19.00;99.90;;;;;;4959648;28;20364;-75
2023/05/28 09:33:07;;;;;;;11.02;5.50;;;19.10;99.90;;;;;;4959243;28;20038;-77
2023/05/28 09:35:33;;;;;;;11.65;5.60;;;19.20;99.90;;;;;;4975875;28;20046;-75
2023/05/28 09:38:11;;;;;;;13.85;5.63;;;19.30;99.90;;;;;;4976496;28;20043;-77
2023/05/28 09:40:38;;;;;;;13.93;5.90;;;19.40;99.90;;;;;;4975471;28;20102;-75
2023/05/28 09:43:07;;;;;;;10.85;5.15;;;19.50;99.90;;;;;;4975024;28;20101;-76
2023/05/28 09:45:33;;;;;;;12.60;5.22;;;19.70;99.90;;;;;;4976829;28;20035;-76
2023/05/28 09:47:59;;;;;;;11.48;5.22;;;19.80;99.90;;;;;;4976497;28;20105;-76
2023/05/28 09:50:25;;;;;;;13.52;5.57;;;20.00;99.90;;;;;;4974758;28;20402;-76
2023/05/28 09:52:55;;;;;;;11.65;4.88;;;20.10;99.90;;;;;;4974612;28;20053;-76
2023/05/28 09:55:24;;;;;;;17.48;5.35;;;20.20;99.90;;;;;;4974617;28;20050;-76
2023/05/28 09:58:01;;;;;;;13.23;5.00;;;20.30;99.90;;;;;;4974833;28;20057;-76
2023/05/28 10:00:47;;;;;;;11.25;5.22;;;20.40;99.90;;;;;;4975081;28;20470;-75
2023/05/28 10:03:36;;;;;;;11.20;4.75;;;20.60;99.90;;;;;;4975250;28;20091;-74
2023/05/28 10:06:06;;;;;;;12.23;4.38;;;20.70;99.90;;;;;;4976206;28;20042;-75
2023/05/28 10:08:37;;;;;;;14.32;5.10;;;20.70;99.90;;;;;;4974490;28;20399;-75
2023/05/28 10:11:05;;;;;;;10.75;4.63;;;20.80;99.90;;;;;;4975985;28;20043;-76
2023/05/28 10:13:31;;;;;;;10.32;4.63;;;20.90;99.90;;;;;;4974506;28;20506;-75
2023/05/28 10:15:57;;;;;;;9.32;4.68;;;21.00;99.70;;;;;;4975785;28;20069;-76
2023/05/28 10:18:24;;;;;;;13.50;5.60;;;21.10;99.30;;;;;;4975998;28;20502;-76
2023/05/28 10:20:51;;;;;;;8.18;3.97;;;21.20;99.10;;;;;;4973832;28;20047;-75
2023/05/28 10:23:17;;;;;;;10.82;4.60;;;21.30;98.10;;;;;;4976000;28;20434;-77
2023/05/28 10:25:43;;;;;;;14.40;4.90;;;21.40;98.30;;;;;;4958512;28;20479;-76
2023/05/28 10:28:13;;;;;;;12.40;4.97;;;21.50;98.10;;;;;;4974308;28;20055;-76
2023/05/28 10:30:39;;;;;;;11.05;5.10;;;21.50;97.80;;;;;;4974260;28;20126;-78
2023/05/28 10:33:11;;;;;;;10.20;4.65;;;21.60;97.00;;;;;;4974773;28;20103;-75
2023/05/28 10:35:53;;;;;;;10.32;5.05;;;21.70;96.80;;;;;;4974603;28;20050;-75
2023/05/28 10:38:19;;;;;;;9.88;4.82;;;21.80;96.30;;;;;;4976058;28;20043;-76
2023/05/28 10:40:46;;;;;;;12.57;5.30;;;21.90;95.40;;;;;;4976332;28;20049;-76
2023/05/28 10:43:45;;;;;;;12.90;5.80;;;22.00;95.00;;;;;;4975854;28;20070;-76
2023/05/28 10:46:11;;;;;;;10.43;4.50;;;22.20;95.30;;;;;;4975742;28;20052;-75
2023/05/28 10:48:41;;;;;;;9.60;5.05;;;22.30;95.00;;;;;;4975869;28;20517;-76
2023/05/28 10:51:07;;;;;;;11.48;5.20;;;22.50;93.30;;;;;;4974574;28;20054;-74
2023/05/28 10:53:33;;;;;;;9.23;5.22;;;22.60;92.30;;;;;;4976273;28;20047;-75
2023/05/28 10:56:01;;;;;;;10.70;5.75;;;22.60;90.60;;;;;;4975607;28;20035;-76
2023/05/28 10:58:32;;;;;;;7.78;4.85;;;22.70;87.50;;;;;;4975463;28;20034;-75
2023/05/28 11:01:04;;;;;;;9.93;5.30;;;22.70;85.80;;;;;;4973670;28;20053;-75
2023/05/28 11:03:40;;;;;;;9.65;5.50;;;22.70;82.70;;;;;;4974841;28;20213;-75
2023/05/28 11:06:07;;;;;;;9.98;5.80;;;22.80;81.80;;;;;;4975324;28;20071;-75
2023/05/28 11:08:46;;;;;;;11.63;5.32;;;22.90;81.70;;;;;;4975403;28;20046;-76
2023/05/28 11:11:14;;;;;;;10.15;5.68;;;23.00;82.40;;;;;;4973701;28;20069;-78
2023/05/28 11:13:48;;;;;;;9.85;5.60;;;23.20;80.10;;;;;;4975087;28;20043;-76
2023/05/28 11:16:18;;;;;;;9.27;5.70;;;23.20;76.40;;;;;;4974037;28;20549;-76
2023/05/28 11:19:03;;;;;;;12.60;6.32;;;23.30;77.20;;;;;;4975367;28;20043;-75
2023/05/28 11:21:29;;;;;;;8.65;5.38;;;23.40;77.70;;;;;;4975037;28;20494;-74
2023/05/28 11:24:04;;;;;;;8.90;5.40;;;23.50;76.40;;;;;;4975186;28;20125;-75
2023/05/28 11:26:32;;;;;;;12.65;5.82;;;23.50;73.80;;;;;;4974002;28;20034;-75
2023/05/28 11:28:58;;;;;;;10.40;6.22;;;23.50;73.00;;;;;;4975775;28;20039;-76
2023/05/28 11:31:23;;;;;;;11.55;6.00;;;23.60;72.70;;;;;;4976390;28;20545;-75
2023/05/28 11:33:49;;;;;;;9.15;5.40;;;23.60;70.40;;;;;;4978142;28;20034;-75
2023/05/28 11:36:15;;;;;;;12.23;5.57;;;23.80;67.80;;;;;;4977721;28;20042;-74
2023/05/28 11:38:41;;;;;;;9.98;6.05;;;23.70;66.50;;;;;;4979072;28;20034;-75
2023/05/28 11:41:06;;;;;;;8.70;5.63;;;23.70;65.60;;;;;;4979090;28;20077;-76
2023/05/28 11:43:32;;;;;;;14.07;6.70;;;23.70;65.50;;;;;;4978254;28;20117;-75
2023/05/28 11:45:59;;;;;;;12.93;6.30;;;23.80;66.30;;;;;;4979328;28;20138;-76
2023/05/28 11:48:27;;;;;;;11.88;6.15;;;23.90;65.90;;;;;;4978031;28;20491;-75
2023/05/28 11:50:57;;;;;;;7.57;4.85;;;24.10;65.50;;;;;;4977461;28;20046;-76
2023/05/28 11:53:23;;;;;;;10.35;4.88;;;24.10;65.80;;;;;;4979007;28;20086;-78
2023/05/28 11:55:49;;;;;;;8.60;4.40;;;24.10;65.00;;;;;;4979036;28;20039;-75
2023/05/28 11:58:14;;;;;;;8.18;4.70;;;24.10;64.70;;;;;;4979128;28;20035;-75
2023/05/28 12:00:40;;;;;;;8.45;4.03;;;24.00;64.80;;;;;;4977292;28;20038;-75
2023/05/28 12:03:05;;;;;;;7.13;3.92;;;24.10;64.50;;;;;;4978805;28;20066;-76
2023/05/28 12:05:38;;;;;;;6.95;3.95;;;24.20;64.90;;;;;;4978813;28;20043;-77
2023/05/28 12:08:07;;;;;;;8.77;4.15;;;24.20;65.50;;;;;;4977595;28;20054;-76
2023/05/28 12:10:32;;;;;;;7.60;3.55;;;24.30;66.20;;;;;;4977286;28;20047;-75
2023/05/28 12:13:00;;;;;;;8.27;3.13;;;24.40;65.90;;;;;;4978491;28;20038;-76
2023/05/28 12:15:29;;;;;;;10.07;3.42;;;24.40;65.90;;;;;;4977080;28;20051;-75
2023/05/28 12:18:00;;;;;;;7.35;3.20;;;24.50;66.00;;;;;;4978351;28;20081;-76
2023/05/28 12:20:30;;;;;;;5.50;2.47;;;24.50;67.10;;;;;;4976835;28;20497;-77
2023/05/28 12:23:00;;;;;;;9.98;3.00;;;24.60;66.90;;;;;;4977294;28;20043;-75
2023/05/28 12:25:26;;;;;;;9.25;3.05;;;24.50;67.10;;;;;;4961210;28;20050;-75
2023/05/28 12:27:51;;;;;;;8.13;2.95;;;24.50;68.60;;;;;;4977400;28;20200;-76
2023/05/28 12:30:17;;;;;;;7.50;2.92;;;24.50;69.40;;;;;;4978295;28;20078;-76
2023/05/28 12:32:42;;;;;;;10.38;3.65;;;24.50;70.40;;;;;;4977926;28;20043;-75
2023/05/28 12:35:08;;;;;;;6.88;3.13;;;24.50;69.90;;;;;;4978003;28;20035;-78
2023/05/28 12:37:34;;;;;;;7.20;3.13;;;24.50;69.70;;;;;;4978424;28;20513;-75
2023/05/28 12:40:00;;;;;;;7.28;2.88;;;24.40;69.80;;;;;;4976641;28;20046;-75
2023/05/28 12:42:25;;;;;;;14.93;3.30;;;24.30;70.50;;;;;;4977000;28;20057;-77
2023/05/28 12:44:51;;;;;;;7.70;2.72;;;24.30;70.00;;;;;;4975833;28;20078;-77
2023/05/28 12:47:17;;;;;;;7.47;3.08;;;24.30;70.90;;;;;;4978341;28;20117;-75
2023/05/28 12:49:43;;;;;;;12.00;3.58;;;24.30;71.90;;;;;;4976696;28;20497;-76
2023/05/28 12:52:08;;;;;;;10.38;3.00;;;24.40;72.20;;;;;;4976403;28;20055;-76
2023/05/28 12:54:34;;;;;;;8.38;2.75;;;24.50;73.30;;;;;;4978057;28;20395;-75
2023/05/28 12:57:00;;;;;;;6.85;2.92;;;24.50;73.30;;;;;;4976395;28;20186;-75
2023/05/28 12:59:28;;;;;;;6.32;2.97;;;24.60;73.90;;;;;;4977694;28;20046;-76
2023/05/28 13:01:55;;;;;;;6.22;3.00;;;24.70;74.30;;;;;;4975759;28;20071;-75
2023/05/28 13:04:23;;;;;;;10.18;3.10;;;24.60;73.70;;;;;;4977709;28;20046;-74
2023/05/28 13:06:51;;;;;;;12.27;3.58;;;24.60;74.10;;;;;;4977722;28;20050;-76
2023/05/28 13:09:20;;;;;;;10.27;3.38;;;24.60;75.00;;;;;;4975818;28;20125;-75
2023/05/28 13:11:45;;;;;;;8.98;3.83;;;24.50;75.70;;;;;;4975601;28;20047;-75
2023/05/28 13:14:11;;;;;;;9.73;3.47;;;24.50;76.70;;;;;;4977393;28;20038;-75
2023/05/28 13:16:37;;;;;;;10.00;4.00;;;24.50;78.50;;;;;;4975900;28;20042;-75
2023/05/28 13:19:03;;;;;;;11.30;4.10;;;24.50;79.50;;;;;;4977172;28;20475;-73
2023/05/28 13:21:31;;;;;;;12.68;3.92;;;24.30;78.90;;;;;;4975482;28;20038;-77
2023/05/28 13:24:01;;;;;;;12.38;4.10;;;24.50;80.10;;;;;;4975586;28;20117;-75
2023/05/28 13:26:29;;;;;;;12.65;3.80;;;24.50;80.50;;;;;;4975569;28;20379;-75
2023/05/28 13:28:55;;;;;;;12.88;3.85;;;24.20;80.80;;;;;;4976412;28;20047;-77
2023/05/28 13:31:21;;;;;;;10.80;4.10;;;24.20;81.70;;;;;;4976431;28;20039;-75
2023/05/28 13:33:46;;;;;;;9.55;3.70;;;24.20;82.10;;;;;;4975646;28;20085;-74
2023/05/28 13:36:12;;;;;;;11.13;3.63;;;24.20;82.10;;;;;;4975596;28;20093;-76
2023/05/28 13:38:40;;;;;;;11.02;3.85;;;24.20;82.90;;;;;;4975605;28;20043;-76
2023/05/28 13:41:06;;;;;;;10.07;3.47;;;24.10;84.20;;;;;;4975179;28;20046;-74
2023/05/28 13:43:32;;;;;;;11.07;3.42;;;24.10;83.70;;;;;;4976519;28;20376;-74
2023/05/28 13:45:59;;;;;;;9.23;3.60;;;23.90;84.60;;;;;;4975427;28;20038;-75
2023/05/28 13:48:25;;;;;;;10.23;3.33;;;23.90;84.30;;;;;;4976623;28;20429;-74
2023/05/28 13:50:51;;;;;;;8.50;3.20;;;23.90;85.20;;;;;;4976971;28;20038;-77
2023/05/28 13:53:17;;;;;;;11.60;3.72;;;24.10;85.90;;;;;;4976549;28;20034;-75
2023/05/28 13:55:42;;;;;;;8.95;3.30;;;24.10;85.70;;;;;;4975934;28;20486;-74
2023/05/28 13:58:08;;;;;;;12.57;3.80;;;24.20;85.70;;;;;;4974734;28;20049;-75
2023/05/28 14:00:33;;;;;;;9.32;3.15;;;24.10;84.90;;;;;;4974666;28;20050;-74
2023/05/28 14:02:59;;;;;;;9.70;3.10;;;24.10;85.20;;;;;;4975582;28;20053;-75
2023/05/28 14:05:25;;;;;;;8.68;3.15;;;24.00;84.80;;;;;;4975684;28;20042;-76
2023/05/28 14:07:50;;;;;;;7.60;2.92;;;24.00;84.80;;;;;;4976210;28;20050;-76
2023/05/28 14:10:16;;;;;;;8.45;3.13;;;24.00;84.60;;;;;;4974820;28;20046;-75
2023/05/28 14:12:42;;;;;;;9.63;3.08;;;24.10;84.60;;;;;;4974777;28;20047;-76
2023/05/28 14:15:08;;;;;;;8.10;3.40;;;24.10;84.30;;;;;;4974780;28;20046;-75
2023/05/28 14:17:33;;;;;;;9.63;2.95;;;24.10;83.50;;;;;;4976388;28;20046;-76
2023/05/28 14:19:59;;;;;;;10.35;2.80;;;24.10;83.20;;;;;;4976023;28;20046;-74
2023/05/28 14:22:25;;;;;;;8.45;2.78;;;24.10;83.00;;;;;;4974220;28;20043;-75
2023/05/28 14:24:51;;;;;;;7.40;3.00;;;24.20;83.00;;;;;;4976016;28;20050;-73
2023/05/28 14:27:17;;;;;;;6.82;2.67;;;24.20;83.00;;;;;;4974811;28;20039;-73
2023/05/28 14:29:43;;;;;;;8.35;2.67;;;24.20;82.80;;;;;;4975374;28;20039;-75
2023/05/28 14:32:08;;;;;;;8.20;2.72;;;24.30;83.60;;;;;;4957858;28;20042;-76
2023/05/28 14:34:34;;;;;;;10.30;2.55;;;24.30;82.80;;;;;;4975991;28;20082;-75
2023/05/28 14:37:00;;;;;;;7.20;3.00;;;24.20;82.00;;;;;;4974315;28;20062;-73
2023/05/28 14:39:26;;;;;;;7.50;2.95;;;24.10;81.90;;;;;;4975843;28;20439;-75
2023/05/28 14:41:51;;;;;;;6.68;2.35;;;24.00;81.80;;;;;;4974129;28;20043;-74
2023/05/28 14:44:17;;;;;;;7.18;2.80;;;24.00;82.00;;;;;;4975394;28;20043;-74
2023/05/28 14:46:42;;;;;;;7.45;2.70;;;23.90;81.70;;;;;;4957940;28;20078;-75
2023/05/28 14:49:08;;;;;;;11.18;3.10;;;23.80;82.30;;;;;;4974029;28;20053;-76
2023/05/28 14:51:34;;;;;;;21.48;4.13;;;23.70;82.30;;;;;;4974108;28;20055;-75
2023/05/28 14:54:00;;;;;;;9.38;2.63;;;23.80;82.00;;;;;;4975044;28;20392;-74
2023/05/28 14:56:26;;;;;;;7.90;2.42;;;23.80;81.70;;;;;;4957975;28;20045;-74
2023/05/28 14:58:51;;;;;;;7.10;2.50;;;23.80;81.60;;;;;;4973796;28;20051;-75
2023/05/28 15:01:18;;;;;;;11.70;2.72;;;23.70;81.10;;;;;;4975019;28;20043;-74
2023/05/28 15:03:43;;;;;;;7.55;2.83;;;23.70;81.00;;;;;;4975217;28;20042;-74
2023/05/28 15:06:10;;;;;;;8.57;2.90;;;23.70;81.60;;;;;;4974214;28;20085;-75
2023/05/28 15:08:36;;;;;;;6.95;2.65;;;23.80;81.60;;;;;;4973513;28;20128;-76
2023/05/28 15:11:02;;;;;;;13.80;3.70;;;23.70;81.50;;;;;;4974979;28;20078;-75
2023/05/28 15:13:28;;;;;;;17.02;4.95;;;23.60;82.30;;;;;;4973639;28;20446;-74
2023/05/28 15:15:54;;;;;;;9.02;2.92;;;23.60;83.40;;;;;;4973609;28;20047;-75
2023/05/28 15:18:20;;;;;;;8.70;3.35;;;23.50;83.90;;;;;;4974761;28;20039;-76
2023/05/28 15:20:46;;;;;;;12.70;4.00;;;23.50;84.40;;;;;;4973699;28;20121;-77
2023/05/28 15:23:11;;;;;;;8.25;3.60;;;23.40;84.80;;;;;;4975139;28;20126;-75
2023/05/28 15:25:37;;;;;;;11.65;3.85;;;23.40;85.40;;;;;;4973500;28;20467;-75
2023/05/28 15:28:04;;;;;;;10.73;3.67;;;23.30;85.60;;;;;;4973958;28;20042;-75
2023/05/28 15:30:30;;;;;;;12.55;3.60;;;23.30;86.40;;;;;;4957837;28;20043;-74
2023/05/28 15:32:57;;;;;;;9.55;3.22;;;23.30;87.30;;;;;;4973403;28;20394;-73
2023/05/28 15:35:26;;;;;;;11.20;4.00;;;23.30;87.60;;;;;;4974756;28;20066;-76
2023/05/28 15:37:52;;;;;;;7.18;3.10;;;23.20;88.50;;;;;;4973598;28;20432;-75
2023/05/28 15:40:18;;;;;;;10.63;3.88;;;23.20;88.90;;;;;;4973666;28;20035;-75
2023/05/28 15:42:45;;;;;;;13.23;5.18;;;23.10;88.70;;;;;;4973432;28;20054;-74
2023/05/28 15:45:11;;;;;;;11.75;4.05;;;23.00;88.80;;;;;;4973539;28;20610;-76
2023/05/28 15:47:37;;;;;;;11.80;3.45;;;23.00;89.20;;;;;;4975787;28;20050;-75
2023/05/28 15:50:03;;;;;;;10.43;4.05;;;22.80;89.50;;;;;;4974008;28;20415;-75
2023/05/28 15:52:30;;;;;;;19.48;4.38;;;22.80;89.70;;;;;;4973221;28;20262;-75
2023/05/28 15:54:56;;;;;;;12.13;4.13;;;22.50;89.80;;;;;;4973056;28;20122;-76
2023/05/28 15:57:22;;;;;;;17.55;4.20;;;22.50;90.30;;;;;;4973628;28;20126;-74
2023/05/28 15:59:48;;;;;;;13.02;4.97;;;22.50;90.80;;;;;;4973775;28;20118;-78
2023/05/28 16:02:16;;;;;;;13.57;5.20;;;22.40;91.00;;;;;;4973101;28;20530;-75
2023/05/28 16:04:43;;;;;;;12.55;5.10;;;22.30;91.40;;;;;;4974969;28;20070;-75
2023/05/28 16:07:10;;;;;;;17.63;5.78;;;22.20;91.70;;;;;;4974997;28;20039;-76
2023/05/28 16:09:36;;;;;;;17.83;5.60;;;22.20;92.20;;;;;;4974594;28;20475;-76
2023/05/28 16:12:03;;;;;;;11.55;4.75;;;22.10;92.50;;;;;;4973157;28;20057;-76
2023/05/28 16:14:33;;;;;;;13.20;5.00;;;22.10;93.00;;;;;;4974950;28;20434;-76
2023/05/28 16:16:59;;;;;;;16.58;5.40;;;21.90;93.40;;;;;;4974989;28;20030;-74
2023/05/28 16:19:25;;;;;;;17.02;5.32;;;21.90;93.50;;;;;;4977189;28;20042;-74
2023/05/28 16:21:51;;;;;;;13.07;5.00;;;21.80;93.90;;;;;;4978184;28;20335;-76
2023/05/28 16:24:18;;;;;;;15.43;5.13;;;21.70;94.60;;;;;;4977152;28;20051;-75
2023/05/28 16:26:47;;;;;;;17.33;6.22;;;21.70;95.40;;;;;;4977154;28;20046;-75
2023/05/28 16:29:13;;;;;;;15.45;5.20;;;21.50;96.40;;;;;;4979112;28;20070;-75
2023/05/28 16:31:39;;;;;;;15.70;5.30;;;21.50;97.00;;;;;;4978051;28;20474;-75
2023/05/28 16:34:05;;;;;;;14.35;4.90;;;21.60;97.10;;;;;;4976616;28;20050;-73
2023/05/28 16:36:32;;;;;;;13.23;5.28;;;21.50;96.60;;;;;;4977969;28;20031;-74